createdAt,value
2018-04-26T00:01:06.282Z,0
2018-04-26T00:02:15.810Z,0
2018-04-26T00:03:25.939Z,0
2018-04-26T00:04:36.070Z,0
2018-04-26T00:05:45.828Z,0
2018-04-26T00:06:56.098Z,0
2018-04-26T00:08:06.308Z,0
2018-04-26T00:09:16.520Z,0
2018-04-26T00:10:26.777Z,0
2018-04-26T00:11:36.981Z,0
2018-04-26T00:12:47.147Z,0
2018-04-26T00:13:57.033Z,0
2018-04-26T00:15:07.176Z,0
2018-04-26T00:16:16.969Z,0
2018-04-26T00:17:27.099Z,0
2018-04-26T00:18:37.308Z,0
2018-04-26T00:19:47.600Z,0
2018-04-26T00:20:57.745Z,0
2018-04-26T00:22:08.001Z,0
2018-04-26T00:23:18.256Z,0
2018-04-26T00:24:28.168Z,0
2018-04-26T00:25:38.101Z,0
2018-04-26T00:26:48.225Z,0
2018-04-26T00:27:58.004Z,0
2018-04-26T00:29:08.189Z,0
2018-04-26T00:30:18.094Z,0
2018-04-26T00:31:28.228Z,0
2018-04-26T00:32:38.099Z,0
2018-04-26T00:33:48.253Z,0
2018-04-26T00:34:58.475Z,0
2018-04-26T00:36:08.436Z,0
2018-04-26T00:37:18.321Z,0
2018-04-26T00:38:28.493Z,0
2018-04-26T00:39:38.829Z,0
2018-04-26T00:40:48.734Z,0
2018-04-26T00:41:58.873Z,0
2018-04-26T00:43:09.132Z,0
2018-04-26T00:44:19.287Z,0
2018-04-26T00:45:29.462Z,0
2018-04-26T00:46:39.336Z,0
2018-04-26T00:47:49.470Z,0
2018-04-26T00:48:59.329Z,0
2018-04-26T00:50:09.541Z,0
2018-04-26T00:51:19.719Z,0
2018-04-26T00:52:29.898Z,0
2018-04-26T00:53:40.083Z,0
2018-04-26T00:54:50.060Z,0
2018-04-26T00:56:00.178Z,0
2018-04-26T00:57:10.058Z,0
2018-04-26T00:58:19.840Z,0
2018-04-26T00:59:29.368Z,0
2018-04-26T01:00:39.557Z,0
2018-04-26T01:01:49.318Z,0
2018-04-26T01:02:59.467Z,0
2018-04-26T01:04:09.600Z,0
2018-04-26T01:05:19.778Z,0
2018-04-26T01:06:29.709Z,0
2018-04-26T01:07:39.863Z,0
2018-04-26T01:08:49.870Z,0
2018-04-26T01:09:59.737Z,0
2018-04-26T01:11:09.965Z,0
2018-04-26T01:12:20.107Z,0
2018-04-26T01:13:30.296Z,0
2018-04-26T01:14:40.406Z,0
2018-04-26T01:15:50.545Z,0
2018-04-26T01:17:00.676Z,0
2018-04-26T01:18:10.034Z,0
2018-04-26T01:19:20.161Z,0
2018-04-26T01:20:30.328Z,0
2018-04-26T01:21:40.637Z,0
2018-04-26T01:22:50.814Z,0
2018-04-26T01:24:00.976Z,0
2018-04-26T01:25:11.201Z,0
2018-04-26T01:26:21.343Z,0
2018-04-26T01:27:31.646Z,0
2018-04-26T01:28:41.876Z,0
2018-04-26T01:29:52.029Z,0
2018-04-26T01:31:01.914Z,0
2018-04-26T01:32:11.916Z,0
2018-04-26T01:33:22.044Z,0
2018-04-26T01:34:32.178Z,0
2018-04-26T01:35:43.309Z,0
2018-04-26T01:36:53.480Z,0
2018-04-26T01:38:03.651Z,0
2018-04-26T01:39:13.843Z,0
2018-04-26T01:40:24.053Z,0
2018-04-26T01:41:33.918Z,0
2018-04-26T01:42:44.100Z,0
2018-04-26T01:43:53.981Z,0
2018-04-26T01:45:04.120Z,0
2018-04-26T01:46:13.989Z,0
2018-04-26T01:47:24.132Z,0
2018-04-26T01:48:34.013Z,0
2018-04-26T01:49:43.882Z,0
2018-04-26T01:50:54.111Z,0
2018-04-26T01:52:04.008Z,0
2018-04-26T01:53:14.128Z,0
2018-04-26T01:54:23.998Z,0
2018-04-26T01:55:34.146Z,0
2018-04-26T01:56:44.320Z,0
2018-04-26T01:57:54.449Z,0
2018-04-26T01:59:04.688Z,0
2018-04-26T02:00:15.960Z,0
2018-04-26T02:01:26.128Z,0
2018-04-26T02:02:36.593Z,0
2018-04-26T02:03:46.801Z,0
2018-04-26T02:04:56.926Z,0
2018-04-26T02:06:07.066Z,0
2018-04-26T02:07:17.209Z,0
2018-04-26T02:08:27.433Z,0
2018-04-26T02:09:37.662Z,0
2018-04-26T02:10:47.813Z,0
2018-04-26T02:11:57.694Z,0
2018-04-26T02:13:07.820Z,0
2018-04-26T02:14:17.973Z,0
2018-04-26T02:15:28.141Z,0
2018-04-26T02:16:38.274Z,0
2018-04-26T02:17:48.385Z,0
2018-04-26T02:18:58.512Z,0
2018-04-26T02:20:08.706Z,0
2018-04-26T02:21:18.874Z,0
2018-04-26T02:22:28.795Z,0
2018-04-26T02:23:38.973Z,0
2018-04-26T02:24:49.167Z,0
2018-04-26T02:25:59.302Z,0
2018-04-26T02:27:09.712Z,0
2018-04-26T02:28:19.859Z,0
2018-04-26T02:29:30.070Z,0
2018-04-26T02:30:40.189Z,0
2018-04-26T02:31:50.363Z,0
2018-04-26T02:33:00.585Z,0
2018-04-26T02:34:10.737Z,0
2018-04-26T02:35:20.873Z,0
2018-04-26T02:36:30.862Z,0
2018-04-26T02:37:41.192Z,0
2018-04-26T02:38:51.068Z,0
2018-04-26T02:40:00.866Z,0
2018-04-26T02:41:11.238Z,0
2018-04-26T02:42:21.433Z,0
2018-04-26T02:43:31.244Z,0
2018-04-26T02:44:41.407Z,0
2018-04-26T02:45:51.704Z,0
2018-04-26T02:47:01.849Z,0
2018-04-26T02:48:12.013Z,0
2018-04-26T02:49:22.171Z,0
2018-04-26T02:50:32.055Z,0
2018-04-26T02:51:42.251Z,0
2018-04-26T02:52:52.200Z,0
2018-04-26T02:54:02.326Z,0
2018-04-26T02:55:12.589Z,0
2018-04-26T02:56:22.728Z,0
2018-04-26T02:57:32.912Z,0
2018-04-26T02:58:43.136Z,0
2018-04-26T02:59:53.343Z,0
2018-04-26T03:01:03.624Z,0
2018-04-26T03:02:13.493Z,0
2018-04-26T03:03:23.684Z,0
2018-04-26T03:04:33.824Z,0
2018-04-26T03:05:43.951Z,0
2018-04-26T03:06:54.154Z,0
2018-04-26T03:08:04.329Z,0
2018-04-26T03:09:14.522Z,0
2018-04-26T03:10:24.654Z,0
2018-04-26T03:11:34.779Z,0
2018-04-26T03:12:44.709Z,0
2018-04-26T03:13:55.079Z,0
2018-04-26T03:15:05.312Z,0
2018-04-26T03:16:15.473Z,0
2018-04-26T03:17:25.651Z,0
2018-04-26T03:18:35.531Z,0
2018-04-26T03:19:45.725Z,0
2018-04-26T03:20:55.585Z,0
2018-04-26T03:22:06.691Z,0
2018-04-26T03:23:16.872Z,0
2018-04-26T03:24:27.050Z,0
2018-04-26T03:25:37.318Z,0
2018-04-26T03:26:47.218Z,0
2018-04-26T03:27:57.341Z,0
2018-04-26T03:29:07.475Z,0
2018-04-26T03:30:17.332Z,4
2018-04-26T03:31:27.394Z,4
2018-04-26T03:32:37.695Z,0
2018-04-26T03:33:47.824Z,4
2018-04-26T03:34:57.988Z,4
2018-04-26T03:36:08.265Z,4
2018-04-26T03:37:18.505Z,4
2018-04-26T03:38:28.460Z,8
2018-04-26T03:39:38.582Z,8
2018-04-26T03:40:48.716Z,8
2018-04-26T03:41:58.619Z,8
2018-04-26T03:43:08.732Z,8
2018-04-26T03:44:18.884Z,8
2018-04-26T03:45:29.064Z,12
2018-04-26T03:46:39.051Z,16
2018-04-26T03:47:48.928Z,12
2018-04-26T03:48:59.070Z,16
2018-04-26T03:50:09.192Z,16
2018-04-26T03:51:19.422Z,16
2018-04-26T03:52:29.288Z,20
2018-04-26T03:53:39.394Z,28
2018-04-26T03:54:49.533Z,28
2018-04-26T03:55:59.679Z,32
2018-04-26T03:57:09.833Z,44
2018-04-26T03:58:20.095Z,52
2018-04-26T03:59:29.978Z,68
2018-04-26T04:00:40.103Z,92
2018-04-26T04:01:50.000Z,120
2018-04-26T04:03:00.122Z,148
2018-04-26T04:04:10.248Z,164
2018-04-26T04:05:20.386Z,180
2018-04-26T04:06:30.640Z,196
2018-04-26T04:07:40.816Z,200
2018-04-26T04:08:50.728Z,216
2018-04-26T04:10:00.839Z,248
2018-04-26T04:11:11.058Z,256
2018-04-26T04:12:21.331Z,256
2018-04-26T04:13:31.246Z,264
2018-04-26T04:14:41.365Z,256
2018-04-26T04:15:51.507Z,220
2018-04-26T04:17:01.390Z,204
2018-04-26T04:18:11.510Z,192
2018-04-26T04:19:21.650Z,168
2018-04-26T04:20:31.453Z,136
2018-04-26T04:21:41.623Z,132
2018-04-26T04:22:51.822Z,144
2018-04-26T04:24:02.031Z,140
2018-04-26T04:25:11.888Z,120
2018-04-26T04:26:22.006Z,136
2018-04-26T04:27:32.201Z,168
2018-04-26T04:28:42.437Z,204
2018-04-26T04:29:52.577Z,212
2018-04-26T04:31:02.714Z,228
2018-04-26T04:32:12.847Z,264
2018-04-26T04:33:22.753Z,308
2018-04-26T04:34:32.959Z,368
2018-04-26T04:35:43.102Z,428
2018-04-26T04:36:53.295Z,436
2018-04-26T04:38:03.426Z,464
2018-04-26T04:39:13.295Z,556
2018-04-26T04:40:23.429Z,672
2018-04-26T04:41:33.553Z,776
2018-04-26T04:42:43.701Z,876
2018-04-26T04:43:53.524Z,984
2018-04-26T04:45:03.554Z,1092
2018-04-26T04:46:13.863Z,1236
2018-04-26T04:47:24.078Z,1452
2018-04-26T04:48:34.220Z,1620
2018-04-26T04:49:44.098Z,1604
2018-04-26T04:50:53.969Z,1600
2018-04-26T04:52:04.089Z,1552
2018-04-26T04:53:14.243Z,1520
2018-04-26T04:54:24.378Z,1524
2018-04-26T04:55:34.536Z,1488
2018-04-26T04:56:44.820Z,1472
2018-04-26T04:57:54.987Z,1464
2018-04-26T04:59:04.921Z,1432
2018-04-26T05:00:15.048Z,1412
2018-04-26T05:01:24.949Z,1404
2018-04-26T05:02:35.064Z,1412
2018-04-26T05:03:45.305Z,1432
2018-04-26T05:04:55.508Z,1456
2018-04-26T05:06:05.657Z,1484
2018-04-26T05:07:15.514Z,1512
2018-04-26T05:08:25.782Z,1556
2018-04-26T05:09:35.917Z,1620
2018-04-26T05:10:46.161Z,1696
2018-04-26T05:11:56.319Z,1776
2018-04-26T05:13:06.456Z,1924
2018-04-26T05:14:16.621Z,1964
2018-04-26T05:15:26.883Z,2036
2018-04-26T05:16:37.062Z,1988
2018-04-26T05:17:47.187Z,2108
2018-04-26T05:18:57.402Z,2276
2018-04-26T05:20:07.790Z,2496
2018-04-26T05:21:17.949Z,2576
2018-04-26T05:22:28.086Z,2724
2018-04-26T05:23:38.233Z,2964
2018-04-26T05:24:48.360Z,3024
2018-04-26T05:25:58.499Z,3060
2018-04-26T05:27:08.628Z,3112
2018-04-26T05:28:18.765Z,3164
2018-04-26T05:29:29.050Z,3172
2018-04-26T05:30:39.216Z,3212
2018-04-26T05:31:49.222Z,3204
2018-04-26T05:32:59.341Z,3332
2018-04-26T05:34:09.519Z,3436
2018-04-26T05:35:19.662Z,3460
2018-04-26T05:36:29.783Z,3464
2018-04-26T05:37:39.926Z,3496
2018-04-26T05:38:50.050Z,3652
2018-04-26T05:40:00.194Z,3916
2018-04-26T05:41:10.315Z,3916
2018-04-26T05:42:20.459Z,3968
2018-04-26T05:43:30.515Z,3916
2018-04-26T05:44:40.653Z,3880
2018-04-26T05:45:50.793Z,3804
2018-04-26T05:47:00.930Z,3564
2018-04-26T05:48:11.056Z,3324
2018-04-26T05:49:21.207Z,2856
2018-04-26T05:50:31.336Z,2596
2018-04-26T05:51:41.458Z,2720
2018-04-26T05:52:51.344Z,2868
2018-04-26T05:54:01.204Z,3104
2018-04-26T05:55:11.109Z,3260
2018-04-26T05:56:21.288Z,3904
2018-04-26T05:57:31.508Z,4280
2018-04-26T05:58:41.780Z,4456
2018-04-26T05:59:51.944Z,4616
2018-04-26T06:01:02.168Z,4868
2018-04-26T06:02:11.964Z,5056
2018-04-26T06:03:22.213Z,5308
2018-04-26T06:04:32.383Z,5184
2018-04-26T06:05:42.564Z,4936
2018-04-26T06:06:52.686Z,4996
2018-04-26T06:08:02.900Z,5584
2018-04-26T06:09:13.142Z,5616
2018-04-26T06:10:24.250Z,5688
2018-04-26T06:11:34.432Z,5476
2018-04-26T06:12:44.375Z,6096
2018-04-26T06:13:54.608Z,6760
2018-04-26T06:15:04.380Z,6972
2018-04-26T06:16:14.578Z,7544
2018-04-26T06:17:24.725Z,8208
2018-04-26T06:18:34.981Z,7980
2018-04-26T06:19:45.420Z,6988
2018-04-26T06:20:55.552Z,6480
2018-04-26T06:22:05.742Z,6452
2018-04-26T06:23:15.864Z,6232
2018-04-26T06:24:26.070Z,6024
2018-04-26T06:25:35.857Z,5928
2018-04-26T06:26:46.037Z,6036
2018-04-26T06:27:56.249Z,5532
2018-04-26T06:29:06.461Z,5392
2018-04-26T06:30:16.303Z,4480
2018-04-26T06:31:26.476Z,3932
2018-04-26T06:32:36.595Z,3268
2018-04-26T06:33:46.488Z,2788
2018-04-26T06:34:56.727Z,2516
2018-04-26T06:36:06.495Z,2584
2018-04-26T06:37:16.665Z,2600
2018-04-26T06:38:26.801Z,2512
2018-04-26T06:39:36.733Z,2348
2018-04-26T06:40:46.903Z,2272
2018-04-26T06:41:57.029Z,2320
2018-04-26T06:43:06.917Z,2560
2018-04-26T06:44:16.784Z,2428
2018-04-26T06:45:26.957Z,2356
2018-04-26T06:46:37.093Z,2472
2018-04-26T06:47:47.341Z,3360
2018-04-26T06:48:57.343Z,4220
2018-04-26T06:50:07.624Z,4596
2018-04-26T06:51:17.843Z,4968
2018-04-26T06:52:28.010Z,5616
2018-04-26T06:53:38.543Z,6856
2018-04-26T06:54:48.725Z,8136
2018-04-26T06:55:58.851Z,8056
2018-04-26T06:57:09.029Z,7332
2018-04-26T06:58:19.236Z,6264
2018-04-26T06:59:29.413Z,5860
2018-04-26T07:00:39.796Z,5396
2018-04-26T07:01:49.929Z,4928
2018-04-26T07:03:00.062Z,4640
2018-04-26T07:04:10.260Z,4368
2018-04-26T07:05:20.475Z,3692
2018-04-26T07:06:30.664Z,3340
2018-04-26T07:07:41.070Z,3864
2018-04-26T07:08:50.943Z,4616
2018-04-26T07:10:01.108Z,4928
2018-04-26T07:11:11.243Z,6056
2018-04-26T07:12:21.389Z,5948
2018-04-26T07:13:31.530Z,6048
2018-04-26T07:14:41.666Z,6928
2018-04-26T07:15:51.807Z,8032
2018-04-26T07:17:01.962Z,8300
2018-04-26T07:18:12.126Z,8240
2018-04-26T07:19:22.254Z,8148
2018-04-26T07:20:32.398Z,7300
2018-04-26T07:21:42.730Z,6808
2018-04-26T07:22:52.952Z,7804
2018-04-26T07:24:03.182Z,8044
2018-04-26T07:25:12.805Z,8664
2018-04-26T07:26:22.931Z,8428
2018-04-26T07:27:32.867Z,7884
2018-04-26T07:28:43.013Z,7912
2018-04-26T07:31:04.534Z,8268
2018-04-26T07:32:15.307Z,7548
2018-04-26T07:33:26.438Z,6728
2018-04-26T07:34:36.585Z,5900
2018-04-26T07:35:46.802Z,5268
2018-04-26T07:36:56.984Z,5452
2018-04-26T07:38:07.189Z,5460
2018-04-26T07:39:17.359Z,5448
2018-04-26T07:40:27.493Z,5340
2018-04-26T07:41:37.615Z,5524
2018-04-26T07:42:47.755Z,5800
2018-04-26T07:43:57.926Z,6356
2018-04-26T07:45:08.125Z,7560
2018-04-26T07:46:18.014Z,7588
2018-04-26T07:47:28.158Z,6700
2018-04-26T07:48:38.281Z,4920
2018-04-26T07:49:48.437Z,4056
2018-04-26T07:50:58.589Z,3156
2018-04-26T07:52:08.941Z,1972
2018-04-26T07:53:19.323Z,1828
2018-04-26T07:54:29.180Z,1704
2018-04-26T07:55:39.320Z,1892
2018-04-26T07:56:49.462Z,2136
2018-04-26T07:57:59.593Z,2256
2018-04-26T07:59:09.768Z,2184
2018-04-26T08:00:20.049Z,2108
2018-04-26T08:01:30.477Z,1984
2018-04-26T08:02:40.877Z,1968
2018-04-26T08:03:50.649Z,2136
2018-04-26T08:05:00.847Z,2680
2018-04-26T08:06:11.026Z,3352
2018-04-26T08:07:21.242Z,3692
2018-04-26T08:08:31.454Z,4836
2018-04-26T08:09:41.674Z,6708
2018-04-26T08:10:52.012Z,9544
2018-04-26T08:12:01.913Z,11376
2018-04-26T08:13:12.073Z,12080
2018-04-26T08:14:22.221Z,12320
2018-04-26T08:15:32.416Z,13036
2018-04-26T08:16:42.579Z,14724
2018-04-26T08:17:52.772Z,15840
2018-04-26T08:19:03.054Z,18048
2018-04-26T08:20:13.258Z,19040
2018-04-26T08:21:23.385Z,15680
2018-04-26T08:22:33.532Z,11568
2018-04-26T08:23:43.708Z,7840
2018-04-26T08:24:53.885Z,6308
2018-04-26T08:26:04.140Z,5844
2018-04-26T08:27:16.545Z,5932
2018-04-26T08:29:41.024Z,8248
2018-04-26T08:30:51.001Z,12424
2018-04-26T08:32:00.920Z,18624
2018-04-26T08:33:11.047Z,18560
2018-04-26T08:34:21.240Z,16000
2018-04-26T08:35:31.493Z,17408
2018-04-26T08:36:41.676Z,10456
2018-04-26T08:39:03.329Z,4640
2018-04-26T08:41:25.233Z,4564
2018-04-26T08:45:07.825Z,5124
2018-04-26T08:46:17.989Z,6324
2018-04-26T08:47:28.125Z,7808
2018-04-26T08:48:38.026Z,10204
2018-04-26T08:49:48.205Z,9528
2018-04-26T08:50:57.992Z,9432
2018-04-26T08:52:07.867Z,9732
2018-04-26T08:53:17.992Z,10936
2018-04-26T08:54:28.207Z,15712
2018-04-26T08:55:38.461Z,21856
2018-04-26T08:56:48.695Z,37344
2018-04-26T08:57:58.894Z,48864
2018-04-26T08:59:09.052Z,25888
2018-04-26T09:00:19.266Z,23328
2018-04-26T09:01:29.406Z,19456
2018-04-26T09:02:39.565Z,23360
2018-04-26T09:03:49.703Z,20256
2018-04-26T09:05:02.138Z,22752
2018-04-26T09:06:12.403Z,13524
2018-04-26T09:07:22.593Z,13268
2018-04-26T09:08:32.499Z,10512
2018-04-26T09:09:42.463Z,10404
2018-04-26T09:10:52.716Z,14136
2018-04-26T09:12:02.842Z,17728
2018-04-26T09:13:12.752Z,15904
2018-04-26T09:14:23.866Z,7676
2018-04-26T09:15:34.022Z,4976
2018-04-26T09:16:43.937Z,4064
2018-04-26T09:17:54.102Z,5160
2018-04-26T09:19:04.270Z,6876
2018-04-26T09:20:14.499Z,4568
2018-04-26T09:21:24.765Z,4592
2018-04-26T09:22:34.716Z,3868
2018-04-26T09:23:44.856Z,5040
2018-04-26T09:24:54.996Z,6172
2018-04-26T09:26:05.139Z,6492
2018-04-26T09:27:15.333Z,7648
2018-04-26T09:28:25.584Z,12692
2018-04-26T09:29:35.772Z,16832
2018-04-26T09:30:45.941Z,59456
2018-04-26T09:31:56.084Z,63008
2018-04-26T09:33:06.238Z,83424
2018-04-26T09:34:16.405Z,91616
2018-04-26T09:35:26.535Z,100544
2018-04-26T09:36:36.807Z,86912
2018-04-26T09:37:46.701Z,20288
2018-04-26T09:38:56.934Z,86560
2018-04-26T09:40:07.081Z,86528
2018-04-26T09:41:17.255Z,22752
2018-04-26T09:42:27.402Z,12448
2018-04-26T09:43:37.581Z,11032
2018-04-26T09:44:47.721Z,12684
2018-04-26T09:45:57.874Z,14096
2018-04-26T09:47:08.075Z,16192
2018-04-26T09:48:18.205Z,17312
2018-04-26T09:49:28.397Z,26464
2018-04-26T09:50:38.556Z,55936
2018-04-26T09:51:48.688Z,22144
2018-04-26T09:52:58.562Z,31712
2018-04-26T09:54:08.694Z,30176
2018-04-26T09:55:18.874Z,16800
2018-04-26T09:56:29.098Z,15424
2018-04-26T09:57:39.255Z,17504
2018-04-26T09:58:49.419Z,24896
2018-04-26T09:59:59.682Z,29696
2018-04-26T10:01:09.861Z,41184
2018-04-26T10:02:20.101Z,33952
2018-04-26T10:03:31.284Z,99360
2018-04-26T10:04:41.538Z,89760
2018-04-26T10:05:53.337Z,29920
2018-04-26T10:07:03.489Z,48320
2018-04-26T10:08:13.636Z,103040
2018-04-26T10:09:24.823Z,20416
2018-04-26T10:10:35.084Z,21440
2018-04-26T10:11:45.295Z,27840
2018-04-26T10:12:55.486Z,26880
2018-04-26T10:14:05.653Z,30592
2018-04-26T10:15:16.174Z,18848
2018-04-26T10:16:26.326Z,20064
2018-04-26T10:17:36.493Z,20704
2018-04-26T10:18:46.694Z,19264
2018-04-26T10:19:56.880Z,101024
2018-04-26T10:21:07.299Z,36160
2018-04-26T10:22:17.462Z,56544
2018-04-26T10:23:28.593Z,66688
2018-04-26T10:24:38.763Z,29728
2018-04-26T10:25:48.930Z,56512
2018-04-26T10:26:59.193Z,32768
2018-04-26T10:28:09.390Z,37600
2018-04-26T10:29:19.602Z,42784
2018-04-26T10:30:29.901Z,56512
2018-04-26T10:31:40.061Z,28128
2018-04-26T10:32:50.230Z,29824
2018-04-26T10:34:00.672Z,22272
2018-04-26T10:35:10.824Z,19328
2018-04-26T10:36:21.027Z,21024
2018-04-26T10:37:31.270Z,17920
2018-04-26T10:38:41.405Z,11908
2018-04-26T10:39:51.580Z,12832
2018-04-26T10:41:01.808Z,32128
2018-04-26T10:42:12.075Z,20256
2018-04-26T10:43:22.226Z,20896
2018-04-26T10:44:32.686Z,12236
2018-04-26T10:45:42.569Z,7448
2018-04-26T10:46:52.692Z,7144
2018-04-26T10:48:02.854Z,8980
2018-04-26T10:49:12.993Z,9684
2018-04-26T10:50:22.353Z,8772
2018-04-26T10:51:32.522Z,6460
2018-04-26T10:52:42.694Z,3004
2018-04-26T10:53:52.362Z,1704
2018-04-26T10:55:02.304Z,2076
2018-04-26T10:56:12.453Z,2316
2018-04-26T10:57:22.594Z,2756
2018-04-26T10:58:32.795Z,2780
2018-04-26T10:59:42.944Z,2668
2018-04-26T11:00:53.205Z,2624
2018-04-26T11:02:03.369Z,2632
2018-04-26T11:03:13.398Z,2784
2018-04-26T11:04:23.525Z,4048
2018-04-26T11:05:33.683Z,5768
2018-04-26T11:06:43.866Z,6992
2018-04-26T11:07:54.017Z,7656
2018-04-26T11:09:04.283Z,7240
2018-04-26T11:10:14.488Z,7816
2018-04-26T11:11:25.019Z,10484
2018-04-26T11:12:35.263Z,14504
2018-04-26T11:13:45.611Z,25440
2018-04-26T11:14:55.388Z,65632
2018-04-26T11:16:05.540Z,92448
2018-04-26T11:17:15.596Z,104640
2018-04-26T11:18:26.007Z,98560
2018-04-26T11:19:36.234Z,100896
2018-04-26T11:20:47.559Z,87232
2018-04-26T11:21:58.745Z,70048
2018-04-26T11:23:08.635Z,79488
2018-04-26T11:24:18.832Z,108032
2018-04-26T11:25:29.092Z,101280
2018-04-26T11:26:39.226Z,84928
2018-04-26T11:27:49.158Z,113760
2018-04-26T11:28:59.464Z,140096
2018-04-26T11:30:09.692Z,32000
2018-04-26T11:31:19.909Z,24896
2018-04-26T11:32:30.083Z,23840
2018-04-26T11:33:40.246Z,23648
2018-04-26T11:34:50.464Z,28960
2018-04-26T11:36:00.625Z,32000
2018-04-26T11:37:10.816Z,60416
2018-04-26T11:38:20.959Z,94336
2018-04-26T11:39:30.920Z,113504
2018-04-26T11:40:40.864Z,105120
2018-04-26T11:41:51.048Z,88704
2018-04-26T11:43:01.202Z,17664
2018-04-26T11:44:11.438Z,53760
2018-04-26T11:45:21.623Z,54528
2018-04-26T11:46:31.785Z,20608
2018-04-26T11:47:41.990Z,13748
2018-04-26T11:48:52.257Z,9524
2018-04-26T11:50:02.160Z,8356
2018-04-26T11:51:12.304Z,8652
2018-04-26T11:52:22.637Z,6284
2018-04-26T11:53:32.821Z,5244
2018-04-26T11:54:42.989Z,6428
2018-04-26T11:55:54.150Z,5652
2018-04-26T11:57:04.371Z,7100
2018-04-26T11:58:14.613Z,7940
2018-04-26T11:59:24.810Z,9008
2018-04-26T12:00:35.057Z,10688
2018-04-26T12:01:45.233Z,12232
2018-04-26T12:02:55.655Z,17376
2018-04-26T12:04:05.792Z,19968
2018-04-26T12:05:15.979Z,21696
2018-04-26T12:06:26.113Z,22912
2018-04-26T12:07:36.303Z,28512
2018-04-26T12:08:46.572Z,16928
2018-04-26T12:09:56.526Z,13620
2018-04-26T12:11:06.695Z,13668
2018-04-26T12:12:16.832Z,14752
2018-04-26T12:13:26.982Z,15328
2018-04-26T12:14:37.238Z,16512
2018-04-26T12:15:47.406Z,19328
2018-04-26T12:16:57.625Z,23232
2018-04-26T12:18:07.826Z,30336
2018-04-26T12:19:17.706Z,78656
2018-04-26T12:20:27.623Z,73824
2018-04-26T12:21:37.765Z,75008
2018-04-26T12:22:47.707Z,69440
2018-04-26T12:23:57.901Z,35872
2018-04-26T12:25:08.161Z,30944
2018-04-26T12:26:18.336Z,80064
2018-04-26T12:27:28.533Z,63968
2018-04-26T12:28:38.692Z,92736
2018-04-26T12:29:48.833Z,96864
2018-04-26T12:30:58.993Z,28512
2018-04-26T12:32:09.144Z,29664
2018-04-26T12:33:19.388Z,24352
2018-04-26T12:34:29.556Z,27296
2018-04-26T12:35:39.744Z,27488
2018-04-26T12:36:49.929Z,93888
2018-04-26T12:38:00.108Z,98176
2018-04-26T12:39:11.095Z,94464
2018-04-26T12:40:21.286Z,81216
2018-04-26T12:41:31.438Z,74048
2018-04-26T12:42:41.586Z,82464
2018-04-26T12:43:51.776Z,95392
2018-04-26T12:45:01.920Z,96352
2018-04-26T12:46:11.827Z,84480
2018-04-26T12:47:22.000Z,80960
2018-04-26T12:48:31.917Z,64320
2018-04-26T12:49:42.074Z,85984
2018-04-26T12:50:52.220Z,80064
2018-04-26T12:52:02.391Z,83200
2018-04-26T12:53:12.546Z,81184
2018-04-26T12:54:22.700Z,69056
2018-04-26T12:55:32.631Z,77568
2018-04-26T12:56:42.840Z,93056
2018-04-26T12:57:53.019Z,82656
2018-04-26T12:59:02.918Z,72096
2018-04-26T13:00:12.822Z,38624
2018-04-26T13:01:22.974Z,89600
2018-04-26T13:02:32.888Z,65632
2018-04-26T13:03:43.040Z,68928
2018-04-26T13:04:52.991Z,68608
2018-04-26T13:06:02.882Z,75648
2018-04-26T13:07:13.027Z,82528
2018-04-26T13:08:23.193Z,82048
2018-04-26T13:09:33.352Z,76480
2018-04-26T13:10:43.503Z,68416
2018-04-26T13:11:53.410Z,68544
2018-04-26T13:13:03.380Z,74784
2018-04-26T13:14:13.611Z,75136
2018-04-26T13:15:23.891Z,70752
2018-04-26T13:16:34.169Z,14792
2018-04-26T13:17:44.158Z,63200
2018-04-26T13:18:54.103Z,75680
2018-04-26T13:20:04.251Z,72768
2018-04-26T13:21:15.247Z,70496
2018-04-26T13:22:25.709Z,12916
2018-04-26T13:23:35.862Z,83616
2018-04-26T13:24:46.078Z,77920
2018-04-26T13:25:56.316Z,79264
2018-04-26T13:27:06.745Z,19200
2018-04-26T13:28:16.695Z,16800
2018-04-26T13:29:26.784Z,68704
2018-04-26T13:30:36.971Z,34656
2018-04-26T13:31:47.127Z,75040
2018-04-26T13:32:57.343Z,76320
2018-04-26T13:34:07.234Z,72288
2018-04-26T13:35:17.392Z,76448
2018-04-26T13:36:27.974Z,70784
2018-04-26T13:37:38.143Z,22752
2018-04-26T13:38:48.323Z,72032
2018-04-26T13:39:58.542Z,14216
2018-04-26T13:41:08.708Z,14380
2018-04-26T13:42:18.916Z,79136
2018-04-26T13:43:29.096Z,67712
2018-04-26T13:44:39.272Z,57664
2018-04-26T13:45:49.193Z,61824
2018-04-26T13:46:59.364Z,65920
2018-04-26T13:48:09.585Z,62528
2018-04-26T13:49:19.759Z,63648
2018-04-26T13:50:29.688Z,65184
2018-04-26T13:51:39.596Z,60128
2018-04-26T13:52:49.993Z,61856
2018-04-26T13:53:59.903Z,72000
2018-04-26T13:55:10.067Z,47520
2018-04-26T13:56:20.233Z,12384
2018-04-26T13:57:30.350Z,7788
2018-04-26T13:58:40.645Z,5920
2018-04-26T13:59:50.866Z,5280
2018-04-26T14:01:00.762Z,4852
2018-04-26T14:02:10.936Z,3176
2018-04-26T14:03:21.119Z,2004
2018-04-26T14:04:31.294Z,1328
2018-04-26T14:05:41.428Z,1012
2018-04-26T14:06:51.348Z,880
2018-04-26T14:08:01.408Z,848
2018-04-26T14:09:11.789Z,904
2018-04-26T14:10:21.964Z,1052
2018-04-26T14:11:32.100Z,1216
2018-04-26T14:12:42.017Z,1300
2018-04-26T14:13:52.173Z,1244
2018-04-26T14:15:02.188Z,1080
2018-04-26T14:16:12.456Z,1136
2018-04-26T14:17:22.707Z,1196
2018-04-26T14:18:32.586Z,1200
2018-04-26T14:19:42.765Z,1408
2018-04-26T14:20:52.962Z,1780
2018-04-26T14:22:03.119Z,2676
2018-04-26T14:23:13.916Z,4196
2018-04-26T14:24:24.339Z,5512
2018-04-26T14:25:34.524Z,6876
2018-04-26T14:26:44.701Z,12312
2018-04-26T14:27:54.888Z,52544
2018-04-26T14:29:04.661Z,59104
2018-04-26T14:30:14.821Z,61472
2018-04-26T14:31:24.984Z,58592
2018-04-26T14:32:35.206Z,56928
2018-04-26T14:33:45.405Z,56928
2018-04-26T14:34:55.568Z,52064
2018-04-26T14:36:05.786Z,51936
2018-04-26T14:37:16.065Z,50560
2018-04-26T14:38:26.392Z,51200
2018-04-26T14:39:36.553Z,60704
2018-04-26T14:40:46.725Z,59136
2018-04-26T14:41:56.891Z,59232
2018-04-26T14:43:07.165Z,56512
2018-04-26T14:44:17.448Z,48736
2018-04-26T14:45:27.639Z,42112
2018-04-26T14:46:37.848Z,42464
2018-04-26T14:47:48.033Z,48160
2018-04-26T14:48:58.203Z,50784
2018-04-26T14:50:08.472Z,37664
2018-04-26T14:51:18.698Z,9832
2018-04-26T14:52:28.920Z,7836
2018-04-26T14:53:39.175Z,7460
2018-04-26T14:54:49.369Z,7468
2018-04-26T14:55:59.580Z,6988
2018-04-26T14:57:09.560Z,6004
2018-04-26T14:58:19.717Z,5080
2018-04-26T14:59:29.877Z,5308
2018-04-26T15:00:40.046Z,6748
2018-04-26T15:01:50.278Z,31328
2018-04-26T15:03:00.212Z,10344
2018-04-26T15:04:10.447Z,10960
2018-04-26T15:05:20.855Z,10728
2018-04-26T15:06:31.092Z,7896
2018-04-26T15:07:41.295Z,5456
2018-04-26T15:08:51.493Z,4480
2018-04-26T15:10:01.697Z,4272
2018-04-26T15:11:11.927Z,5280
2018-04-26T15:12:22.151Z,7788
2018-04-26T15:13:32.367Z,7820
2018-04-26T15:14:42.542Z,6220
2018-04-26T15:15:52.825Z,5216
2018-04-26T15:17:03.059Z,3996
2018-04-26T15:18:13.247Z,4692
2018-04-26T15:19:23.438Z,5428
2018-04-26T15:20:33.403Z,5504
2018-04-26T15:21:43.688Z,5768
2018-04-26T15:22:53.891Z,6268
2018-04-26T15:24:04.063Z,7024
2018-04-26T15:25:14.267Z,7832
2018-04-26T15:26:24.457Z,10012
2018-04-26T15:27:34.606Z,13012
2018-04-26T15:28:44.762Z,28576
2018-04-26T15:29:55.061Z,12252
2018-04-26T15:31:05.269Z,16864
2018-04-26T15:32:15.231Z,24608
2018-04-26T15:33:25.279Z,16256
2018-04-26T15:34:35.476Z,11716
2018-04-26T15:35:45.651Z,10040
2018-04-26T15:36:55.315Z,9276
2018-04-26T15:38:05.535Z,8880
2018-04-26T15:39:15.547Z,8540
2018-04-26T15:40:25.759Z,8260
2018-04-26T15:41:35.945Z,7992
2018-04-26T15:42:46.132Z,7652
2018-04-26T15:43:56.334Z,7468
2018-04-26T15:45:06.322Z,7280
2018-04-26T15:46:16.335Z,7140
2018-04-26T15:47:26.315Z,7104
2018-04-26T15:48:36.594Z,7148
2018-04-26T15:49:46.794Z,7196
2018-04-26T15:50:56.985Z,7344
2018-04-26T15:52:06.829Z,7612
2018-04-26T15:53:16.992Z,8456
2018-04-26T15:54:27.191Z,6816
2018-04-26T15:55:38.377Z,4820